sensor_id;sensor_type;location;lat;lon;timestamp;temperature;humidity
5429;DHT22;2737;52.386;9.980;2022-12-07T00:01:48;2.90;99.90
5429;DHT22;2737;52.386;9.980;2022-12-07T00:04:17;3.00;99.90
5429;DHT22;2737;52.386;9.980;2022-12-07T00:06:46;3.00;99.90
5429;DHT22;2737;52.386;9.980;2022-12-07T00:09:15;3.00;99.90
5429;DHT22;2737;52.386;9.980;2022-12-07T00:11:43;3.00;99.90
5429;DHT22;2737;52.386;9.980;2022-12-07T00:14:12;3.00;99.90
5429;DHT22;2737;52.386;9.980;2022-12-07T00:16:39;3.00;99.90
5429;DHT22;2737;52.386;9.980;2022-12-07T00:19:07;3.10;99.90
5429;DHT22;2737;52.386;9.980;2022-12-07T00:21:35;3.10;99.90
5429;DHT22;2737;52.386;9.980;2022-12-07T00:24:04;3.10;99.90
5429;DHT22;2737;52.386;9.980;2022-12-07T00:26:33;3.10;99.90
5429;DHT22;2737;52.386;9.980;2022-12-07T00:29:03;3.10;99.90
5429;DHT22;2737;52.386;9.980;2022-12-07T00:31:33;3.20;99.90
5429;DHT22;2737;52.386;9.980;2022-12-07T00:34:01;3.20;99.90
5429;DHT22;2737;52.386;9.980;2022-12-07T00:36:28;3.20;99.90
5429;DHT22;2737;52.386;9.980;2022-12-07T00:38:58;3.20;99.90
5429;DHT22;2737;52.386;9.980;2022-12-07T00:41:27;3.20;99.90
5429;DHT22;2737;52.386;9.980;2022-12-07T00:43:55;3.20;99.90
5429;DHT22;2737;52.386;9.980;2022-12-07T00:46:23;3.20;99.90
5429;DHT22;2737;52.386;9.980;2022-12-07T00:48:51;3.20;99.90
5429;DHT22;2737;52.386;9.980;2022-12-07T00:51:21;3.30;99.90
5429;DHT22;2737;52.386;9.980;2022-12-07T00:53:48;3.30;99.90
5429;DHT22;2737;52.386;9.980;2022-12-07T00:56:18;3.30;99.90
5429;DHT22;2737;52.386;9.980;2022-12-07T00:58:50;3.30;99.90
5429;DHT22;2737;52.386;9.980;2022-12-07T01:01:17;3.30;99.90
5429;DHT22;2737;52.386;9.980;2022-12-07T01:03:44;3.30;99.90
5429;DHT22;2737;52.386;9.980;2022-12-07T01:06:14;3.30;99.90
5429;DHT22;2737;52.386;9.980;2022-12-07T01:08:41;3.30;99.90
5429;DHT22;2737;52.386;9.980;2022-12-07T01:11:12;3.40;99.90
5429;DHT22;2737;52.386;9.980;2022-12-07T01:13:42;3.40;99.90
5429;DHT22;2737;52.386;9.980;2022-12-07T01:16:11;3.40;99.90
5429;DHT22;2737;52.386;9.980;2022-12-07T01:18:38;3.40;99.90
5429;DHT22;2737;52.386;9.980;2022-12-07T01:21:08;3.40;99.90
5429;DHT22;2737;52.386;9.980;2022-12-07T01:23:36;3.40;99.90
5429;DHT22;2737;52.386;9.980;2022-12-07T01:26:06;3.40;99.90
5429;DHT22;2737;52.386;9.980;2022-12-07T01:28:33;3.40;99.90
5429;DHT22;2737;52.386;9.980;2022-12-07T01:31:04;3.40;99.90
5429;DHT22;2737;52.386;9.980;2022-12-07T01:33:34;3.40;99.90
5429;DHT22;2737;52.386;9.980;2022-12-07T01:36:02;3.40;99.90
5429;DHT22;2737;52.386;9.980;2022-12-07T01:38:30;3.50;99.90
5429;DHT22;2737;52.386;9.980;2022-12-07T01:40:58;3.50;99.90
5429;DHT22;2737;52.386;9.980;2022-12-07T01:43:27;3.50;99.90
5429;DHT22;2737;52.386;9.980;2022-12-07T01:45:55;3.50;99.90
5429;DHT22;2737;52.386;9.980;2022-12-07T01:48:27;3.60;99.90
5429;DHT22;2737;52.386;9.980;2022-12-07T01:50:57;3.70;99.90
5429;DHT22;2737;52.386;9.980;2022-12-07T01:53:28;3.70;99.90
5429;DHT22;2737;52.386;9.980;2022-12-07T01:55:56;3.70;99.90
5429;DHT22;2737;52.386;9.980;2022-12-07T01:58:25;3.80;99.90
5429;DHT22;2737;52.386;9.980;2022-12-07T02:00:52;3.80;99.90
5429;DHT22;2737;52.386;9.980;2022-12-07T02:03:23;3.80;99.90
5429;DHT22;2737;52.386;9.980;2022-12-07T02:05:53;3.90;99.90
5429;DHT22;2737;52.386;9.980;2022-12-07T02:08:21;3.80;99.90
5429;DHT22;2737;52.386;9.980;2022-12-07T02:10:48;3.80;99.90
5429;DHT22;2737;52.386;9.980;2022-12-07T02:13:17;3.90;99.90
5429;DHT22;2737;52.386;9.980;2022-12-07T02:15:56;3.90;99.90
5429;DHT22;2737;52.386;9.980;2022-12-07T02:18:41;3.80;99.90
5429;DHT22;2737;52.386;9.980;2022-12-07T02:21:13;3.80;99.90
5429;DHT22;2737;52.386;9.980;2022-12-07T02:23:59;3.80;99.90
5429;DHT22;2737;52.386;9.980;2022-12-07T02:26:51;3.70;99.90
5429;DHT22;2737;52.386;9.980;2022-12-07T02:29:24;3.70;99.90
5429;DHT22;2737;52.386;9.980;2022-12-07T02:31:59;3.70;99.90
5429;DHT22;2737;52.386;9.980;2022-12-07T02:34:39;3.70;99.90
5429;DHT22;2737;52.386;9.980;2022-12-07T02:37:12;3.70;99.90
5429;DHT22;2737;52.386;9.980;2022-12-07T02:39:48;3.70;99.90
5429;DHT22;2737;52.386;9.980;2022-12-07T02:42:23;3.70;99.90
5429;DHT22;2737;52.386;9.980;2022-12-07T02:44:55;3.70;99.90
5429;DHT22;2737;52.386;9.980;2022-12-07T02:47:23;3.60;99.90
5429;DHT22;2737;52.386;9.980;2022-12-07T02:49:52;3.60;99.90
5429;DHT22;2737;52.386;9.980;2022-12-07T02:52:19;3.70;99.90
5429;DHT22;2737;52.386;9.980;2022-12-07T02:54:46;3.70;99.90
5429;DHT22;2737;52.386;9.980;2022-12-07T02:57:42;3.70;99.90
5429;DHT22;2737;52.386;9.980;2022-12-07T03:00:16;3.70;99.90
5429;DHT22;2737;52.386;9.980;2022-12-07T03:02:52;3.60;99.90
5429;DHT22;2737;52.386;9.980;2022-12-07T03:05:31;3.60;99.90
5429;DHT22;2737;52.386;9.980;2022-12-07T03:08:02;3.60;99.90
5429;DHT22;2737;52.386;9.980;2022-12-07T03:10:38;3.60;99.90
5429;DHT22;2737;52.386;9.980;2022-12-07T03:13:12;3.50;99.90
5429;DHT22;2737;52.386;9.980;2022-12-07T03:15:50;3.50;99.90
5429;DHT22;2737;52.386;9.980;2022-12-07T03:18:22;3.50;99.90
5429;DHT22;2737;52.386;9.980;2022-12-07T03:20:53;3.50;99.90
5429;DHT22;2737;52.386;9.980;2022-12-07T03:23:23;3.50;99.90
5429;DHT22;2737;52.386;9.980;2022-12-07T03:25:56;3.50;99.90
5429;DHT22;2737;52.386;9.980;2022-12-07T03:28:28;3.50;99.90
5429;DHT22;2737;52.386;9.980;2022-12-07T03:30:59;3.50;99.90
5429;DHT22;2737;52.386;9.980;2022-12-07T03:33:30;3.50;99.90
5429;DHT22;2737;52.386;9.980;2022-12-07T03:36:03;3.50;99.90
5429;DHT22;2737;52.386;9.980;2022-12-07T03:38:36;3.50;99.90
5429;DHT22;2737;52.386;9.980;2022-12-07T03:41:07;3.60;99.90
5429;DHT22;2737;52.386;9.980;2022-12-07T03:43:36;3.60;99.90
5429;DHT22;2737;52.386;9.980;2022-12-07T03:46:13;3.70;99.90
5429;DHT22;2737;52.386;9.980;2022-12-07T03:48:53;3.70;99.90
5429;DHT22;2737;52.386;9.980;2022-12-07T03:51:28;3.70;99.90
5429;DHT22;2737;52.386;9.980;2022-12-07T03:54:00;3.70;99.90
5429;DHT22;2737;52.386;9.980;2022-12-07T03:56:32;3.70;99.90
5429;DHT22;2737;52.386;9.980;2022-12-07T03:59:00;3.70;99.90
5429;DHT22;2737;52.386;9.980;2022-12-07T04:01:29;3.70;99.90
5429;DHT22;2737;52.386;9.980;2022-12-07T04:03:56;3.70;99.90
5429;DHT22;2737;52.386;9.980;2022-12-07T04:06:23;3.70;99.90
5429;DHT22;2737;52.386;9.980;2022-12-07T04:08:50;3.70;99.90
5429;DHT22;2737;52.386;9.980;2022-12-07T04:11:17;3.60;99.90
5429;DHT22;2737;52.386;9.980;2022-12-07T04:13:44;3.60;99.90
5429;DHT22;2737;52.386;9.980;2022-12-07T04:16:29;3.60;99.90
5429;DHT22;2737;52.386;9.980;2022-12-07T04:18:56;3.50;99.90
5429;DHT22;2737;52.386;9.980;2022-12-07T04:21:23;3.50;99.90
5429;DHT22;2737;52.386;9.980;2022-12-07T04:23:50;3.50;99.90
5429;DHT22;2737;52.386;9.980;2022-12-07T04:26:18;3.50;99.90
5429;DHT22;2737;52.386;9.980;2022-12-07T04:28:45;3.50;99.90
5429;DHT22;2737;52.386;9.980;2022-12-07T04:31:12;3.40;99.90
5429;DHT22;2737;52.386;9.980;2022-12-07T04:33:40;3.40;99.90
5429;DHT22;2737;52.386;9.980;2022-12-07T04:36:07;3.40;99.90
5429;DHT22;2737;52.386;9.980;2022-12-07T04:38:34;3.40;99.90
5429;DHT22;2737;52.386;9.980;2022-12-07T04:41:05;3.40;99.90
5429;DHT22;2737;52.386;9.980;2022-12-07T04:43:32;3.40;99.90
5429;DHT22;2737;52.386;9.980;2022-12-07T04:45:59;3.40;99.90
5429;DHT22;2737;52.386;9.980;2022-12-07T04:48:26;3.40;99.90
5429;DHT22;2737;52.386;9.980;2022-12-07T04:50:55;3.50;99.90
5429;DHT22;2737;52.386;9.980;2022-12-07T04:53:22;3.50;99.90
5429;DHT22;2737;52.386;9.980;2022-12-07T04:55:49;3.50;99.90
5429;DHT22;2737;52.386;9.980;2022-12-07T04:58:16;3.50;99.90
5429;DHT22;2737;52.386;9.980;2022-12-07T05:00:43;3.50;99.90
5429;DHT22;2737;52.386;9.980;2022-12-07T05:03:10;3.40;99.90
5429;DHT22;2737;52.386;9.980;2022-12-07T05:05:40;3.50;99.90
5429;DHT22;2737;52.386;9.980;2022-12-07T05:08:08;3.50;99.90
5429;DHT22;2737;52.386;9.980;2022-12-07T05:10:35;3.50;99.90
5429;DHT22;2737;52.386;9.980;2022-12-07T05:13:02;3.50;99.90
5429;DHT22;2737;52.386;9.980;2022-12-07T05:15:29;3.50;99.90
5429;DHT22;2737;52.386;9.980;2022-12-07T05:17:56;3.50;99.90
5429;DHT22;2737;52.386;9.980;2022-12-07T05:20:23;3.50;99.90
5429;DHT22;2737;52.386;9.980;2022-12-07T05:22:51;3.50;99.90
5429;DHT22;2737;52.386;9.980;2022-12-07T05:25:19;3.50;99.90
5429;DHT22;2737;52.386;9.980;2022-12-07T05:27:46;3.50;99.90
5429;DHT22;2737;52.386;9.980;2022-12-07T05:30:14;3.50;99.90
5429;DHT22;2737;52.386;9.980;2022-12-07T05:32:41;3.50;99.90
5429;DHT22;2737;52.386;9.980;2022-12-07T05:35:08;3.50;99.90
5429;DHT22;2737;52.386;9.980;2022-12-07T05:37:35;3.60;99.90
5429;DHT22;2737;52.386;9.980;2022-12-07T05:40:03;3.60;99.90
5429;DHT22;2737;52.386;9.980;2022-12-07T05:42:32;3.50;99.90
5429;DHT22;2737;52.386;9.980;2022-12-07T05:44:59;3.50;99.90
5429;DHT22;2737;52.386;9.980;2022-12-07T05:47:26;3.50;99.90
5429;DHT22;2737;52.386;9.980;2022-12-07T05:49:53;3.50;99.90
5429;DHT22;2737;52.386;9.980;2022-12-07T05:52:20;3.50;99.90
5429;DHT22;2737;52.386;9.980;2022-12-07T05:54:47;3.50;99.90
5429;DHT22;2737;52.386;9.980;2022-12-07T05:57:14;3.50;99.90
5429;DHT22;2737;52.386;9.980;2022-12-07T05:59:43;3.50;99.90
5429;DHT22;2737;52.386;9.980;2022-12-07T06:02:10;3.50;99.90
5429;DHT22;2737;52.386;9.980;2022-12-07T06:04:43;3.40;99.90
5429;DHT22;2737;52.386;9.980;2022-12-07T06:07:12;3.40;99.90
5429;DHT22;2737;52.386;9.980;2022-12-07T06:09:40;3.40;99.90
5429;DHT22;2737;52.386;9.980;2022-12-07T06:12:09;3.40;99.90
5429;DHT22;2737;52.386;9.980;2022-12-07T06:14:55;3.40;99.90
5429;DHT22;2737;52.386;9.980;2022-12-07T06:17:22;3.40;99.90
5429;DHT22;2737;52.386;9.980;2022-12-07T06:19:49;3.30;99.90
5429;DHT22;2737;52.386;9.980;2022-12-07T06:22:16;3.30;99.90
5429;DHT22;2737;52.386;9.980;2022-12-07T06:24:44;3.30;99.90
5429;DHT22;2737;52.386;9.980;2022-12-07T06:27:11;3.30;99.90
5429;DHT22;2737;52.386;9.980;2022-12-07T06:29:39;3.20;99.90
5429;DHT22;2737;52.386;9.980;2022-12-07T06:32:07;3.20;99.90
5429;DHT22;2737;52.386;9.980;2022-12-07T06:34:34;3.20;99.90
5429;DHT22;2737;52.386;9.980;2022-12-07T06:37:01;3.20;99.90
5429;DHT22;2737;52.386;9.980;2022-12-07T06:39:29;3.20;99.90
5429;DHT22;2737;52.386;9.980;2022-12-07T06:41:56;3.20;99.90
5429;DHT22;2737;52.386;9.980;2022-12-07T06:44:24;3.20;99.90
5429;DHT22;2737;52.386;9.980;2022-12-07T06:46:51;3.20;99.90
5429;DHT22;2737;52.386;9.980;2022-12-07T06:49:20;3.20;99.90
5429;DHT22;2737;52.386;9.980;2022-12-07T06:51:47;3.10;99.90
5429;DHT22;2737;52.386;9.980;2022-12-07T06:54:16;3.10;99.90
5429;DHT22;2737;52.386;9.980;2022-12-07T06:56:43;3.20;99.90
5429;DHT22;2737;52.386;9.980;2022-12-07T06:59:11;3.20;99.90
5429;DHT22;2737;52.386;9.980;2022-12-07T07:01:38;3.20;99.90
5429;DHT22;2737;52.386;9.980;2022-12-07T07:04:05;3.20;99.90
5429;DHT22;2737;52.386;9.980;2022-12-07T07:06:34;3.20;99.90
5429;DHT22;2737;52.386;9.980;2022-12-07T07:09:02;3.20;99.90
5429;DHT22;2737;52.386;9.980;2022-12-07T07:11:29;3.20;99.90
5429;DHT22;2737;52.386;9.980;2022-12-07T07:13:56;3.20;99.90
5429;DHT22;2737;52.386;9.980;2022-12-07T07:16:28;3.20;99.90
5429;DHT22;2737;52.386;9.980;2022-12-07T07:18:55;3.20;99.90
5429;DHT22;2737;52.386;9.980;2022-12-07T07:21:26;3.10;99.90
5429;DHT22;2737;52.386;9.980;2022-12-07T07:23:54;3.10;99.90
5429;DHT22;2737;52.386;9.980;2022-12-07T07:26:22;3.10;99.90
5429;DHT22;2737;52.386;9.980;2022-12-07T07:28:49;3.10;99.90
5429;DHT22;2737;52.386;9.980;2022-12-07T07:31:16;3.10;99.90
5429;DHT22;2737;52.386;9.980;2022-12-07T07:33:45;3.10;99.90
5429;DHT22;2737;52.386;9.980;2022-12-07T07:36:12;3.10;99.90
5429;DHT22;2737;52.386;9.980;2022-12-07T07:38:39;3.10;99.90
5429;DHT22;2737;52.386;9.980;2022-12-07T07:41:07;3.10;99.90
5429;DHT22;2737;52.386;9.980;2022-12-07T07:43:35;3.10;99.90
5429;DHT22;2737;52.386;9.980;2022-12-07T07:46:02;3.10;99.90
5429;DHT22;2737;52.386;9.980;2022-12-07T07:48:29;3.10;99.90
5429;DHT22;2737;52.386;9.980;2022-12-07T07:50:57;3.10;99.90
5429;DHT22;2737;52.386;9.980;2022-12-07T07:53:24;3.10;99.90
5429;DHT22;2737;52.386;9.980;2022-12-07T07:55:52;3.10;99.90
5429;DHT22;2737;52.386;9.980;2022-12-07T07:58:21;3.10;99.90
5429;DHT22;2737;52.386;9.980;2022-12-07T08:00:48;3.10;99.90
5429;DHT22;2737;52.386;9.980;2022-12-07T08:03:16;3.10;99.90
5429;DHT22;2737;52.386;9.980;2022-12-07T08:05:43;3.10;99.90
5429;DHT22;2737;52.386;9.980;2022-12-07T08:08:10;3.10;99.90
5429;DHT22;2737;52.386;9.980;2022-12-07T08:10:37;3.10;99.90
5429;DHT22;2737;52.386;9.980;2022-12-07T08:13:04;3.10;99.90
5429;DHT22;2737;52.386;9.980;2022-12-07T08:15:43;3.10;99.90
5429;DHT22;2737;52.386;9.980;2022-12-07T08:18:11;3.10;99.90
5429;DHT22;2737;52.386;9.980;2022-12-07T08:20:39;3.20;99.90
5429;DHT22;2737;52.386;9.980;2022-12-07T08:23:07;3.20;99.90
5429;DHT22;2737;52.386;9.980;2022-12-07T08:25:34;3.20;99.90
5429;DHT22;2737;52.386;9.980;2022-12-07T08:28:02;3.20;99.90
5429;DHT22;2737;52.386;9.980;2022-12-07T08:30:30;3.20;99.90
5429;DHT22;2737;52.386;9.980;2022-12-07T08:32:58;3.20;99.90
5429;DHT22;2737;52.386;9.980;2022-12-07T08:35:25;3.20;99.90
5429;DHT22;2737;52.386;9.980;2022-12-07T08:37:52;3.20;99.90
5429;DHT22;2737;52.386;9.980;2022-12-07T08:40:19;3.20;99.90
5429;DHT22;2737;52.386;9.980;2022-12-07T08:42:49;3.20;99.90
5429;DHT22;2737;52.386;9.980;2022-12-07T08:45:17;3.20;99.90
5429;DHT22;2737;52.386;9.980;2022-12-07T08:47:47;3.20;99.90
5429;DHT22;2737;52.386;9.980;2022-12-07T08:50:17;3.30;99.90
5429;DHT22;2737;52.386;9.980;2022-12-07T08:52:48;3.30;99.90
5429;DHT22;2737;52.386;9.980;2022-12-07T08:55:16;3.30;99.90
5429;DHT22;2737;52.386;9.980;2022-12-07T08:57:43;3.30;99.90
5429;DHT22;2737;52.386;9.980;2022-12-07T09:00:11;3.30;99.90
5429;DHT22;2737;52.386;9.980;2022-12-07T09:02:39;3.40;99.90
5429;DHT22;2737;52.386;9.980;2022-12-07T09:05:06;3.40;99.90
5429;DHT22;2737;52.386;9.980;2022-12-07T09:07:35;3.40;99.90
5429;DHT22;2737;52.386;9.980;2022-12-07T09:10:04;3.40;99.90
5429;DHT22;2737;52.386;9.980;2022-12-07T09:12:31;3.40;99.90
5429;DHT22;2737;52.386;9.980;2022-12-07T09:14:58;3.40;99.90
5429;DHT22;2737;52.386;9.980;2022-12-07T09:17:26;3.40;99.90
5429;DHT22;2737;52.386;9.980;2022-12-07T09:19:53;3.40;99.90
5429;DHT22;2737;52.386;9.980;2022-12-07T09:22:20;3.50;99.90
5429;DHT22;2737;52.386;9.980;2022-12-07T09:24:48;3.50;99.90
5429;DHT22;2737;52.386;9.980;2022-12-07T09:27:15;3.50;99.90
5429;DHT22;2737;52.386;9.980;2022-12-07T09:29:43;3.50;99.90
5429;DHT22;2737;52.386;9.980;2022-12-07T09:32:10;3.50;99.90
5429;DHT22;2737;52.386;9.980;2022-12-07T09:34:37;3.50;99.90
5429;DHT22;2737;52.386;9.980;2022-12-07T09:37:04;3.50;99.90
5429;DHT22;2737;52.386;9.980;2022-12-07T09:39:32;3.60;99.90
5429;DHT22;2737;52.386;9.980;2022-12-07T09:42:03;3.60;99.90
5429;DHT22;2737;52.386;9.980;2022-12-07T09:44:31;3.50;99.90
5429;DHT22;2737;52.386;9.980;2022-12-07T09:46:59;3.50;99.90
5429;DHT22;2737;52.386;9.980;2022-12-07T09:49:29;3.50;99.90
5429;DHT22;2737;52.386;9.980;2022-12-07T09:52:01;3.50;99.90
5429;DHT22;2737;52.386;9.980;2022-12-07T09:54:29;3.50;99.90
5429;DHT22;2737;52.386;9.980;2022-12-07T09:56:57;3.50;99.90
5429;DHT22;2737;52.386;9.980;2022-12-07T09:59:26;3.60;99.90
5429;DHT22;2737;52.386;9.980;2022-12-07T10:01:53;3.70;99.90
5429;DHT22;2737;52.386;9.980;2022-12-07T10:04:22;3.70;99.90
5429;DHT22;2737;52.386;9.980;2022-12-07T10:06:51;3.70;99.90
5429;DHT22;2737;52.386;9.980;2022-12-07T10:09:20;3.70;99.90
5429;DHT22;2737;52.386;9.980;2022-12-07T10:12:05;3.80;99.90
5429;DHT22;2737;52.386;9.980;2022-12-07T10:14:36;3.80;99.90
5429;DHT22;2737;52.386;9.980;2022-12-07T10:17:30;3.80;99.90
5429;DHT22;2737;52.386;9.980;2022-12-07T10:20:14;3.80;99.90
5429;DHT22;2737;52.386;9.980;2022-12-07T10:22:55;3.80;99.90
5429;DHT22;2737;52.386;9.980;2022-12-07T10:25:24;3.90;99.90
5429;DHT22;2737;52.386;9.980;2022-12-07T10:27:58;4.00;99.90
5429;DHT22;2737;52.386;9.980;2022-12-07T10:30:27;4.00;99.90
5429;DHT22;2737;52.386;9.980;2022-12-07T10:32:55;4.10;99.90
5429;DHT22;2737;52.386;9.980;2022-12-07T10:35:24;4.10;99.90
5429;DHT22;2737;52.386;9.980;2022-12-07T10:37:53;4.00;99.90
5429;DHT22;2737;52.386;9.980;2022-12-07T10:40:29;4.00;99.90
5429;DHT22;2737;52.386;9.980;2022-12-07T10:43:17;4.00;99.90
5429;DHT22;2737;52.386;9.980;2022-12-07T10:46:20;4.00;99.90
5429;DHT22;2737;52.386;9.980;2022-12-07T10:48:59;4.10;99.90
5429;DHT22;2737;52.386;9.980;2022-12-07T10:51:35;4.10;99.90
5429;DHT22;2737;52.386;9.980;2022-12-07T10:54:11;4.20;99.90
5429;DHT22;2737;52.386;9.980;2022-12-07T10:56:59;4.20;99.90
5429;DHT22;2737;52.386;9.980;2022-12-07T10:59:47;4.10;99.90
5429;DHT22;2737;52.386;9.980;2022-12-07T11:02:26;4.10;99.90
5429;DHT22;2737;52.386;9.980;2022-12-07T11:05:10;4.10;99.90
5429;DHT22;2737;52.386;9.980;2022-12-07T11:07:47;4.20;99.90
5429;DHT22;2737;52.386;9.980;2022-12-07T11:10:20;4.10;99.90
5429;DHT22;2737;52.386;9.980;2022-12-07T11:13:04;4.20;99.90
5429;DHT22;2737;52.386;9.980;2022-12-07T11:15:48;4.20;99.90
5429;DHT22;2737;52.386;9.980;2022-12-07T11:18:26;4.20;99.90
5429;DHT22;2737;52.386;9.980;2022-12-07T11:21:03;4.20;99.90
5429;DHT22;2737;52.386;9.980;2022-12-07T11:23:42;4.20;99.90
5429;DHT22;2737;52.386;9.980;2022-12-07T11:26:19;4.10;99.90
5429;DHT22;2737;52.386;9.980;2022-12-07T11:29:03;4.20;99.90
5429;DHT22;2737;52.386;9.980;2022-12-07T11:31:38;4.20;99.90
5429;DHT22;2737;52.386;9.980;2022-12-07T11:34:19;4.10;99.90
5429;DHT22;2737;52.386;9.980;2022-12-07T11:36:52;4.20;99.90
5429;DHT22;2737;52.386;9.980;2022-12-07T11:39:26;4.10;99.90
5429;DHT22;2737;52.386;9.980;2022-12-07T11:42:00;4.10;99.90
5429;DHT22;2737;52.386;9.980;2022-12-07T11:44:32;4.00;99.90
5429;DHT22;2737;52.386;9.980;2022-12-07T11:47:05;4.00;99.90
5429;DHT22;2737;52.386;9.980;2022-12-07T11:49:43;4.00;99.90
5429;DHT22;2737;52.386;9.980;2022-12-07T11:52:19;4.00;99.90
5429;DHT22;2737;52.386;9.980;2022-12-07T11:54:50;4.00;99.90
5429;DHT22;2737;52.386;9.980;2022-12-07T11:57:24;4.00;99.90
5429;DHT22;2737;52.386;9.980;2022-12-07T11:59:58;4.00;99.90
5429;DHT22;2737;52.386;9.980;2022-12-07T12:02:32;3.90;99.90
5429;DHT22;2737;52.386;9.980;2022-12-07T12:05:13;3.90;99.90
5429;DHT22;2737;52.386;9.980;2022-12-07T12:07:43;3.90;99.90
5429;DHT22;2737;52.386;9.980;2022-12-07T12:10:18;3.90;99.90
5429;DHT22;2737;52.386;9.980;2022-12-07T12:13:00;3.80;99.90
5429;DHT22;2737;52.386;9.980;2022-12-07T12:15:43;3.80;99.90
5429;DHT22;2737;52.386;9.980;2022-12-07T12:18:32;3.80;99.90
5429;DHT22;2737;52.386;9.980;2022-12-07T12:21:08;3.80;99.90
5429;DHT22;2737;52.386;9.980;2022-12-07T12:23:41;3.80;99.90
5429;DHT22;2737;52.386;9.980;2022-12-07T12:26:16;3.90;99.90
5429;DHT22;2737;52.386;9.980;2022-12-07T12:28:52;4.00;99.90
5429;DHT22;2737;52.386;9.980;2022-12-07T12:31:38;4.00;99.90
5429;DHT22;2737;52.386;9.980;2022-12-07T12:34:33;4.10;99.90
5429;DHT22;2737;52.386;9.980;2022-12-07T12:42:59;4.20;99.90
5429;DHT22;2737;52.386;9.980;2022-12-07T12:45:28;4.20;99.90
5429;DHT22;2737;52.386;9.980;2022-12-07T12:47:57;4.20;99.90
5429;DHT22;2737;52.386;9.980;2022-12-07T12:50:28;4.20;99.90
5429;DHT22;2737;52.386;9.980;2022-12-07T12:53:19;4.20;99.90
5429;DHT22;2737;52.386;9.980;2022-12-07T12:56:27;4.20;99.90
5429;DHT22;2737;52.386;9.980;2022-12-07T12:59:26;4.20;99.90
5429;DHT22;2737;52.386;9.980;2022-12-07T13:02:06;4.20;99.90
5429;DHT22;2737;52.386;9.980;2022-12-07T13:04:52;4.20;99.90
5429;DHT22;2737;52.386;9.980;2022-12-07T13:07:52;4.30;99.90
5429;DHT22;2737;52.386;9.980;2022-12-07T13:10:39;4.20;99.90
5429;DHT22;2737;52.386;9.980;2022-12-07T13:13:28;4.20;99.90
5429;DHT22;2737;52.386;9.980;2022-12-07T13:16:39;4.20;99.90
5429;DHT22;2737;52.386;9.980;2022-12-07T13:22:49;4.30;99.90
5429;DHT22;2737;52.386;9.980;2022-12-07T13:25:29;4.30;99.90
5429;DHT22;2737;52.386;9.980;2022-12-07T13:28:02;4.30;99.90
5429;DHT22;2737;52.386;9.980;2022-12-07T13:30:42;4.20;99.90
5429;DHT22;2737;52.386;9.980;2022-12-07T13:33:11;4.20;99.90
5429;DHT22;2737;52.386;9.980;2022-12-07T13:35:38;4.20;99.90
5429;DHT22;2737;52.386;9.980;2022-12-07T13:38:25;4.20;99.90
5429;DHT22;2737;52.386;9.980;2022-12-07T13:43:58;4.20;99.90
5429;DHT22;2737;52.386;9.980;2022-12-07T13:46:33;4.10;99.90
5429;DHT22;2737;52.386;9.980;2022-12-07T13:49:02;4.10;99.90
5429;DHT22;2737;52.386;9.980;2022-12-07T13:51:34;4.10;99.90
5429;DHT22;2737;52.386;9.980;2022-12-07T13:54:10;4.10;99.90
5429;DHT22;2737;52.386;9.980;2022-12-07T13:56:39;4.10;99.90
5429;DHT22;2737;52.386;9.980;2022-12-07T13:59:12;4.10;99.90
5429;DHT22;2737;52.386;9.980;2022-12-07T14:01:40;4.20;99.90
5429;DHT22;2737;52.386;9.980;2022-12-07T14:04:20;4.10;99.90
5429;DHT22;2737;52.386;9.980;2022-12-07T14:06:54;4.10;99.90
5429;DHT22;2737;52.386;9.980;2022-12-07T14:09:23;4.10;99.90
5429;DHT22;2737;52.386;9.980;2022-12-07T14:11:53;4.10;99.90
5429;DHT22;2737;52.386;9.980;2022-12-07T14:14:22;4.10;99.90
5429;DHT22;2737;52.386;9.980;2022-12-07T14:16:58;4.10;99.90
5429;DHT22;2737;52.386;9.980;2022-12-07T14:19:46;4.10;99.90
5429;DHT22;2737;52.386;9.980;2022-12-07T14:22:23;4.10;99.90
5429;DHT22;2737;52.386;9.980;2022-12-07T14:24:57;4.10;99.90
5429;DHT22;2737;52.386;9.980;2022-12-07T14:27:31;4.10;99.90
5429;DHT22;2737;52.386;9.980;2022-12-07T14:29:59;4.10;99.90
5429;DHT22;2737;52.386;9.980;2022-12-07T14:32:28;4.10;99.90
5429;DHT22;2737;52.386;9.980;2022-12-07T14:34:58;4.10;99.90
5429;DHT22;2737;52.386;9.980;2022-12-07T14:37:26;4.10;99.90
5429;DHT22;2737;52.386;9.980;2022-12-07T14:39:53;4.10;99.90
5429;DHT22;2737;52.386;9.980;2022-12-07T14:42:23;4.10;99.90
5429;DHT22;2737;52.386;9.980;2022-12-07T14:44:53;4.10;99.90
5429;DHT22;2737;52.386;9.980;2022-12-07T14:47:20;4.10;99.90
5429;DHT22;2737;52.386;9.980;2022-12-07T14:49:47;4.10;99.90
5429;DHT22;2737;52.386;9.980;2022-12-07T14:52:16;4.00;99.90
5429;DHT22;2737;52.386;9.980;2022-12-07T14:54:44;4.00;99.90
5429;DHT22;2737;52.386;9.980;2022-12-07T14:57:11;4.10;99.90
5429;DHT22;2737;52.386;9.980;2022-12-07T14:59:38;4.10;99.90
5429;DHT22;2737;52.386;9.980;2022-12-07T15:02:09;4.00;99.90
5429;DHT22;2737;52.386;9.980;2022-12-07T15:04:39;4.10;99.90
5429;DHT22;2737;52.386;9.980;2022-12-07T15:07:14;4.00;99.90
5429;DHT22;2737;52.386;9.980;2022-12-07T15:09:42;4.00;99.90
5429;DHT22;2737;52.386;9.980;2022-12-07T15:12:09;4.00;99.90
5429;DHT22;2737;52.386;9.980;2022-12-07T15:14:36;4.00;99.90
5429;DHT22;2737;52.386;9.980;2022-12-07T15:17:03;4.00;99.90
5429;DHT22;2737;52.386;9.980;2022-12-07T15:19:32;4.00;99.90
5429;DHT22;2737;52.386;9.980;2022-12-07T15:21:59;3.90;99.90
5429;DHT22;2737;52.386;9.980;2022-12-07T15:24:26;4.00;99.90
5429;DHT22;2737;52.386;9.980;2022-12-07T15:26:53;3.90;99.90
5429;DHT22;2737;52.386;9.980;2022-12-07T15:29:21;3.90;99.90
5429;DHT22;2737;52.386;9.980;2022-12-07T15:31:48;3.90;99.90
5429;DHT22;2737;52.386;9.980;2022-12-07T15:34:15;3.90;99.90
5429;DHT22;2737;52.386;9.980;2022-12-07T15:36:44;3.90;99.90
5429;DHT22;2737;52.386;9.980;2022-12-07T15:39:11;3.90;99.90
5429;DHT22;2737;52.386;9.980;2022-12-07T15:41:38;3.90;99.90
5429;DHT22;2737;52.386;9.980;2022-12-07T15:44:05;3.90;99.90
5429;DHT22;2737;52.386;9.980;2022-12-07T15:46:50;3.60;99.90
5429;DHT22;2737;52.386;9.980;2022-12-07T15:49:18;3.40;99.90
5429;DHT22;2737;52.386;9.980;2022-12-07T15:51:47;3.20;99.90
5429;DHT22;2737;52.386;9.980;2022-12-07T15:54:18;3.20;99.90
5429;DHT22;2737;52.386;9.980;2022-12-07T15:56:46;3.10;99.90
5429;DHT22;2737;52.386;9.980;2022-12-07T15:59:13;3.10;99.90
5429;DHT22;2737;52.386;9.980;2022-12-07T16:01:40;3.20;99.90
5429;DHT22;2737;52.386;9.980;2022-12-07T16:04:08;3.20;99.90
5429;DHT22;2737;52.386;9.980;2022-12-07T16:06:35;3.20;99.90
5429;DHT22;2737;52.386;9.980;2022-12-07T16:09:04;3.20;99.90
5429;DHT22;2737;52.386;9.980;2022-12-07T16:11:31;3.20;99.90
5429;DHT22;2737;52.386;9.980;2022-12-07T16:13:58;3.20;99.90
5429;DHT22;2737;52.386;9.980;2022-12-07T16:16:25;3.20;99.90
5429;DHT22;2737;52.386;9.980;2022-12-07T16:18:52;3.20;99.90
5429;DHT22;2737;52.386;9.980;2022-12-07T16:21:20;3.00;99.90
5429;DHT22;2737;52.386;9.980;2022-12-07T16:23:47;2.90;99.90
5429;DHT22;2737;52.386;9.980;2022-12-07T16:26:17;2.90;99.90
5429;DHT22;2737;52.386;9.980;2022-12-07T16:28:44;3.00;99.90
5429;DHT22;2737;52.386;9.980;2022-12-07T16:31:13;2.90;99.90
5429;DHT22;2737;52.386;9.980;2022-12-07T16:33:43;2.90;99.90
5429;DHT22;2737;52.386;9.980;2022-12-07T16:36:11;2.60;99.90
5429;DHT22;2737;52.386;9.980;2022-12-07T16:38:39;2.30;99.90
5429;DHT22;2737;52.386;9.980;2022-12-07T16:41:06;2.20;99.90
5429;DHT22;2737;52.386;9.980;2022-12-07T16:43:35;2.10;99.90
5429;DHT22;2737;52.386;9.980;2022-12-07T16:46:03;2.10;99.90
5429;DHT22;2737;52.386;9.980;2022-12-07T16:48:30;2.10;99.90
5429;DHT22;2737;52.386;9.980;2022-12-07T16:50:57;2.10;99.90
5429;DHT22;2737;52.386;9.980;2022-12-07T16:53:29;2.10;99.90
5429;DHT22;2737;52.386;9.980;2022-12-07T16:58:24;2.10;99.90